sensor_id;sensor_type;location;lat;lon;timestamp;P1;durP1;ratioP1;P2;durP2;ratioP2
25359;SDS011;13311;51.386;0.016;2022-07-23T00:03:56;7.55;;;3.03;;
25359;SDS011;13311;51.386;0.016;2022-07-23T00:08:57;7.18;;;2.78;;
25359;SDS011;13311;51.386;0.016;2022-07-23T00:13:58;7.32;;;3.28;;
25359;SDS011;13311;51.386;0.016;2022-07-23T00:18:59;7.63;;;2.58;;
25359;SDS011;13311;51.386;0.016;2022-07-23T00:24:01;4.50;;;2.65;;
25359;SDS011;13311;51.386;0.016;2022-07-23T00:29:02;9.90;;;2.40;;
25359;SDS011;13311;51.386;0.016;2022-07-23T00:34:02;5.90;;;2.67;;
25359;SDS011;13311;51.386;0.016;2022-07-23T00:39:03;6.10;;;3.08;;
25359;SDS011;13311;51.386;0.016;2022-07-23T00:44:14;8.18;;;3.13;;
25359;SDS011;13311;51.386;0.016;2022-07-23T00:49:20;7.10;;;2.80;;
25359;SDS011;13311;51.386;0.016;2022-07-23T00:54:27;6.77;;;3.27;;
25359;SDS011;13311;51.386;0.016;2022-07-23T00:59:29;7.45;;;2.75;;
25359;SDS011;13311;51.386;0.016;2022-07-23T01:04:29;7.00;;;2.72;;
25359;SDS011;13311;51.386;0.016;2022-07-23T01:09:30;4.72;;;2.60;;
25359;SDS011;13311;51.386;0.016;2022-07-23T01:14:32;6.68;;;2.80;;
25359;SDS011;13311;51.386;0.016;2022-07-23T01:19:32;6.55;;;2.60;;
25359;SDS011;13311;51.386;0.016;2022-07-23T01:24:33;4.28;;;2.55;;
25359;SDS011;13311;51.386;0.016;2022-07-23T01:29:34;3.67;;;2.20;;
25359;SDS011;13311;51.386;0.016;2022-07-23T01:34:35;7.70;;;2.65;;
25359;SDS011;13311;51.386;0.016;2022-07-23T01:39:35;3.97;;;2.50;;
25359;SDS011;13311;51.386;0.016;2022-07-23T01:44:36;5.65;;;2.70;;
25359;SDS011;13311;51.386;0.016;2022-07-23T01:49:37;4.70;;;2.80;;
25359;SDS011;13311;51.386;0.016;2022-07-23T01:54:38;9.50;;;2.72;;
25359;SDS011;13311;51.386;0.016;2022-07-23T01:59:39;7.60;;;3.25;;
25359;SDS011;13311;51.386;0.016;2022-07-23T02:04:40;7.32;;;2.95;;
25359;SDS011;13311;51.386;0.016;2022-07-23T02:09:41;6.15;;;2.72;;
25359;SDS011;13311;51.386;0.016;2022-07-23T02:14:42;5.25;;;2.47;;
25359;SDS011;13311;51.386;0.016;2022-07-23T02:19:42;10.55;;;3.33;;
25359;SDS011;13311;51.386;0.016;2022-07-23T02:24:43;5.35;;;2.65;;
25359;SDS011;13311;51.386;0.016;2022-07-23T02:29:44;4.97;;;2.65;;
25359;SDS011;13311;51.386;0.016;2022-07-23T02:34:45;6.70;;;2.45;;
25359;SDS011;13311;51.386;0.016;2022-07-23T02:39:45;5.03;;;2.47;;
25359;SDS011;13311;51.386;0.016;2022-07-23T02:44:48;6.93;;;2.80;;
25359;SDS011;13311;51.386;0.016;2022-07-23T02:49:49;3.53;;;2.50;;
25359;SDS011;13311;51.386;0.016;2022-07-23T02:54:49;4.93;;;2.58;;
25359;SDS011;13311;51.386;0.016;2022-07-23T02:59:50;4.95;;;2.40;;
25359;SDS011;13311;51.386;0.016;2022-07-23T03:04:51;6.13;;;2.40;;
25359;SDS011;13311;51.386;0.016;2022-07-23T03:09:52;7.88;;;2.40;;
25359;SDS011;13311;51.386;0.016;2022-07-23T03:14:52;7.00;;;2.67;;
25359;SDS011;13311;51.386;0.016;2022-07-23T03:19:54;4.63;;;2.25;;
25359;SDS011;13311;51.386;0.016;2022-07-23T03:24:55;4.43;;;2.92;;
25359;SDS011;13311;51.386;0.016;2022-07-23T03:29:56;6.47;;;3.22;;
25359;SDS011;13311;51.386;0.016;2022-07-23T03:34:59;6.78;;;2.28;;
25359;SDS011;13311;51.386;0.016;2022-07-23T03:39:59;6.05;;;2.70;;
25359;SDS011;13311;51.386;0.016;2022-07-23T03:45:00;4.00;;;2.50;;
25359;SDS011;13311;51.386;0.016;2022-07-23T03:50:02;5.13;;;2.60;;
25359;SDS011;13311;51.386;0.016;2022-07-23T03:55:03;5.50;;;2.72;;
25359;SDS011;13311;51.386;0.016;2022-07-23T04:00:05;8.65;;;2.85;;
25359;SDS011;13311;51.386;0.016;2022-07-23T04:05:09;7.90;;;2.90;;
25359;SDS011;13311;51.386;0.016;2022-07-23T04:10:10;4.70;;;2.38;;
25359;SDS011;13311;51.386;0.016;2022-07-23T04:15:11;6.22;;;2.67;;
25359;SDS011;13311;51.386;0.016;2022-07-23T04:20:12;6.97;;;3.38;;
25359;SDS011;13311;51.386;0.016;2022-07-23T04:25:12;15.40;;;3.65;;
25359;SDS011;13311;51.386;0.016;2022-07-23T04:30:16;4.03;;;2.75;;
25359;SDS011;13311;51.386;0.016;2022-07-23T04:35:17;8.32;;;3.38;;
25359;SDS011;13311;51.386;0.016;2022-07-23T04:40:18;11.32;;;3.53;;
25359;SDS011;13311;51.386;0.016;2022-07-23T04:45:19;10.23;;;3.40;;
25359;SDS011;13311;51.386;0.016;2022-07-23T04:50:20;6.72;;;3.20;;
25359;SDS011;13311;51.386;0.016;2022-07-23T04:55:21;7.15;;;3.90;;
25359;SDS011;13311;51.386;0.016;2022-07-23T05:00:22;9.70;;;3.63;;
25359;SDS011;13311;51.386;0.016;2022-07-23T05:05:23;9.13;;;3.72;;
25359;SDS011;13311;51.386;0.016;2022-07-23T05:10:24;11.18;;;4.35;;
25359;SDS011;13311;51.386;0.016;2022-07-23T05:15:24;10.30;;;4.38;;
25359;SDS011;13311;51.386;0.016;2022-07-23T05:20:25;7.50;;;3.53;;
25359;SDS011;13311;51.386;0.016;2022-07-23T05:25:26;5.22;;;3.38;;
25359;SDS011;13311;51.386;0.016;2022-07-23T05:30:27;5.30;;;3.22;;
25359;SDS011;13311;51.386;0.016;2022-07-23T05:35:28;5.53;;;3.05;;
25359;SDS011;13311;51.386;0.016;2022-07-23T05:40:29;4.63;;;3.00;;
25359;SDS011;13311;51.386;0.016;2022-07-23T05:45:30;5.55;;;2.78;;
25359;SDS011;13311;51.386;0.016;2022-07-23T05:50:31;5.82;;;3.53;;
25359;SDS011;13311;51.386;0.016;2022-07-23T05:55:31;4.00;;;2.45;;
25359;SDS011;13311;51.386;0.016;2022-07-23T06:00:32;7.22;;;3.13;;
25359;SDS011;13311;51.386;0.016;2022-07-23T06:05:33;4.63;;;2.60;;
25359;SDS011;13311;51.386;0.016;2022-07-23T06:10:34;3.67;;;2.13;;
25359;SDS011;13311;51.386;0.016;2022-07-23T06:15:35;4.18;;;2.38;;
25359;SDS011;13311;51.386;0.016;2022-07-23T06:20:36;4.55;;;2.20;;
25359;SDS011;13311;51.386;0.016;2022-07-23T06:25:37;4.40;;;2.33;;
25359;SDS011;13311;51.386;0.016;2022-07-23T06:30:38;8.93;;;2.63;;
25359;SDS011;13311;51.386;0.016;2022-07-23T06:35:39;6.38;;;2.63;;
25359;SDS011;13311;51.386;0.016;2022-07-23T06:40:40;4.68;;;3.08;;
25359;SDS011;13311;51.386;0.016;2022-07-23T06:45:41;4.35;;;2.97;;
25359;SDS011;13311;51.386;0.016;2022-07-23T06:50:41;5.43;;;2.70;;
25359;SDS011;13311;51.386;0.016;2022-07-23T06:55:42;4.60;;;2.30;;
25359;SDS011;13311;51.386;0.016;2022-07-23T07:00:43;5.72;;;2.55;;
25359;SDS011;13311;51.386;0.016;2022-07-23T07:05:44;6.75;;;2.88;;
25359;SDS011;13311;51.386;0.016;2022-07-23T07:10:45;5.95;;;2.90;;
25359;SDS011;13311;51.386;0.016;2022-07-23T07:15:46;2.90;;;2.00;;
25359;SDS011;13311;51.386;0.016;2022-07-23T07:20:47;3.63;;;2.47;;
25359;SDS011;13311;51.386;0.016;2022-07-23T07:25:49;3.83;;;2.65;;
25359;SDS011;13311;51.386;0.016;2022-07-23T07:30:50;7.00;;;2.40;;
25359;SDS011;13311;51.386;0.016;2022-07-23T07:35:52;3.70;;;2.10;;
25359;SDS011;13311;51.386;0.016;2022-07-23T07:40:52;4.05;;;2.40;;
25359;SDS011;13311;51.386;0.016;2022-07-23T07:45:53;3.90;;;1.98;;
25359;SDS011;13311;51.386;0.016;2022-07-23T07:50:54;4.43;;;2.00;;
25359;SDS011;13311;51.386;0.016;2022-07-23T07:55:55;5.10;;;2.28;;
25359;SDS011;13311;51.386;0.016;2022-07-23T08:00:56;10.65;;;2.67;;
25359;SDS011;13311;51.386;0.016;2022-07-23T08:05:56;3.42;;;2.10;;
25359;SDS011;13311;51.386;0.016;2022-07-23T08:10:57;6.97;;;3.17;;
25359;SDS011;13311;51.386;0.016;2022-07-23T08:15:58;5.72;;;2.20;;
25359;SDS011;13311;51.386;0.016;2022-07-23T08:20:59;5.13;;;2.78;;
25359;SDS011;13311;51.386;0.016;2022-07-23T08:25:59;5.10;;;1.70;;
25359;SDS011;13311;51.386;0.016;2022-07-23T08:31:01;3.53;;;2.05;;
25359;SDS011;13311;51.386;0.016;2022-07-23T08:36:04;3.72;;;1.83;;
25359;SDS011;13311;51.386;0.016;2022-07-23T08:41:05;3.60;;;2.10;;
25359;SDS011;13311;51.386;0.016;2022-07-23T08:46:08;2.65;;;2.10;;
25359;SDS011;13311;51.386;0.016;2022-07-23T08:51:09;3.65;;;2.10;;
25359;SDS011;13311;51.386;0.016;2022-07-23T08:56:10;6.05;;;2.38;;
25359;SDS011;13311;51.386;0.016;2022-07-23T09:01:11;6.97;;;2.50;;
25359;SDS011;13311;51.386;0.016;2022-07-23T09:06:11;4.80;;;2.03;;
25359;SDS011;13311;51.386;0.016;2022-07-23T09:11:13;4.60;;;1.80;;
25359;SDS011;13311;51.386;0.016;2022-07-23T09:16:19;1.77;;;1.65;;
25359;SDS011;13311;51.386;0.016;2022-07-23T09:21:30;3.80;;;1.90;;
25359;SDS011;13311;51.386;0.016;2022-07-23T09:31:51;4.43;;;1.83;;
25359;SDS011;13311;51.386;0.016;2022-07-23T09:37:08;1.73;;;1.30;;
25359;SDS011;13311;51.386;0.016;2022-07-23T09:42:24;1.63;;;1.50;;
25359;SDS011;13311;51.386;0.016;2022-07-23T09:47:27;1.63;;;1.30;;
25359;SDS011;13311;51.386;0.016;2022-07-23T09:52:32;1.23;;;1.10;;
25359;SDS011;13311;51.386;0.016;2022-07-23T09:57:46;3.72;;;1.83;;
25359;SDS011;13311;51.386;0.016;2022-07-23T10:02:53;4.05;;;1.42;;
25359;SDS011;13311;51.386;0.016;2022-07-23T10:07:55;2.90;;;1.85;;
25359;SDS011;13311;51.386;0.016;2022-07-23T10:12:57;4.97;;;2.30;;
25359;SDS011;13311;51.386;0.016;2022-07-23T10:18:22;4.95;;;1.65;;
25359;SDS011;13311;51.386;0.016;2022-07-23T10:23:43;5.32;;;2.10;;
25359;SDS011;13311;51.386;0.016;2022-07-23T10:34:41;3.25;;;1.67;;
25359;SDS011;13311;51.386;0.016;2022-07-23T10:40:08;3.22;;;1.20;;
25359;SDS011;13311;51.386;0.016;2022-07-23T10:50:39;3.22;;;1.95;;
25359;SDS011;13311;51.386;0.016;2022-07-23T10:55:42;2.47;;;1.63;;
25359;SDS011;13311;51.386;0.016;2022-07-23T11:00:46;2.35;;;1.52;;
25359;SDS011;13311;51.386;0.016;2022-07-23T11:05:47;1.92;;;1.25;;
25359;SDS011;13311;51.386;0.016;2022-07-23T11:10:52;3.10;;;1.30;;
25359;SDS011;13311;51.386;0.016;2022-07-23T11:36:56;2.38;;;1.30;;
25359;SDS011;13311;51.386;0.016;2022-07-23T11:42:02;2.55;;;1.40;;
25359;SDS011;13311;51.386;0.016;2022-07-23T11:47:09;1.92;;;1.33;;
25359;SDS011;13311;51.386;0.016;2022-07-23T11:52:14;2.95;;;1.40;;
25359;SDS011;13311;51.386;0.016;2022-07-23T11:57:15;2.20;;;1.10;;
25359;SDS011;13311;51.386;0.016;2022-07-23T12:02:17;1.92;;;1.25;;
25359;SDS011;13311;51.386;0.016;2022-07-23T12:12:39;2.42;;;1.25;;
25359;SDS011;13311;51.386;0.016;2022-07-23T12:18:01;1.85;;;1.00;;
25359;SDS011;13311;51.386;0.016;2022-07-23T12:23:04;1.23;;;1.00;;
25359;SDS011;13311;51.386;0.016;2022-07-23T12:28:08;2.17;;;1.20;;
25359;SDS011;13311;51.386;0.016;2022-07-23T12:33:21;1.98;;;1.35;;
25359;SDS011;13311;51.386;0.016;2022-07-23T12:38:51;2.28;;;0.98;;
25359;SDS011;13311;51.386;0.016;2022-07-23T12:43:52;2.65;;;1.52;;
25359;SDS011;13311;51.386;0.016;2022-07-23T12:48:53;3.90;;;1.60;;
25359;SDS011;13311;51.386;0.016;2022-07-23T12:53:56;2.38;;;1.25;;
25359;SDS011;13311;51.386;0.016;2022-07-23T12:59:02;4.43;;;1.77;;
25359;SDS011;13311;51.386;0.016;2022-07-23T13:04:20;1.95;;;1.20;;
25359;SDS011;13311;51.386;0.016;2022-07-23T13:09:24;2.03;;;1.35;;
25359;SDS011;13311;51.386;0.016;2022-07-23T13:14:27;1.52;;;1.02;;
25359;SDS011;13311;51.386;0.016;2022-07-23T13:19:28;2.08;;;1.50;;
25359;SDS011;13311;51.386;0.016;2022-07-23T13:24:29;9.25;;;1.63;;
25359;SDS011;13311;51.386;0.016;2022-07-23T13:29:30;2.47;;;1.33;;
25359;SDS011;13311;51.386;0.016;2022-07-23T13:34:31;2.42;;;1.10;;
25359;SDS011;13311;51.386;0.016;2022-07-23T13:39:31;2.03;;;1.30;;
25359;SDS011;13311;51.386;0.016;2022-07-23T13:44:32;3.03;;;1.60;;
25359;SDS011;13311;51.386;0.016;2022-07-23T13:49:34;2.00;;;1.30;;
25359;SDS011;13311;51.386;0.016;2022-07-23T13:54:35;2.67;;;1.13;;
25359;SDS011;13311;51.386;0.016;2022-07-23T13:59:36;3.65;;;1.40;;
25359;SDS011;13311;51.386;0.016;2022-07-23T14:04:37;3.63;;;1.73;;
25359;SDS011;13311;51.386;0.016;2022-07-23T14:09:39;4.78;;;2.13;;
25359;SDS011;13311;51.386;0.016;2022-07-23T14:14:40;2.75;;;1.30;;
25359;SDS011;13311;51.386;0.016;2022-07-23T14:19:43;2.83;;;1.50;;
25359;SDS011;13311;51.386;0.016;2022-07-23T14:24:44;1.50;;;1.25;;
25359;SDS011;13311;51.386;0.016;2022-07-23T14:29:45;3.20;;;1.40;;
25359;SDS011;13311;51.386;0.016;2022-07-23T14:34:46;3.28;;;1.58;;
25359;SDS011;13311;51.386;0.016;2022-07-23T14:39:47;2.67;;;1.40;;
25359;SDS011;13311;51.386;0.016;2022-07-23T14:44:48;3.63;;;1.42;;
25359;SDS011;13311;51.386;0.016;2022-07-23T14:49:49;3.17;;;1.40;;
25359;SDS011;13311;51.386;0.016;2022-07-23T14:54:50;4.20;;;1.52;;
25359;SDS011;13311;51.386;0.016;2022-07-23T14:59:51;2.53;;;1.50;;
25359;SDS011;13311;51.386;0.016;2022-07-23T15:04:51;3.88;;;1.73;;
25359;SDS011;13311;51.386;0.016;2022-07-23T15:09:52;4.45;;;1.65;;
25359;SDS011;13311;51.386;0.016;2022-07-23T15:14:53;6.15;;;1.75;;
25359;SDS011;13311;51.386;0.016;2022-07-23T15:19:54;7.22;;;1.50;;
25359;SDS011;13311;51.386;0.016;2022-07-23T15:24:55;3.10;;;1.83;;
25359;SDS011;13311;51.386;0.016;2022-07-23T15:29:56;5.18;;;1.90;;
25359;SDS011;13311;51.386;0.016;2022-07-23T15:34:56;2.17;;;1.50;;
25359;SDS011;13311;51.386;0.016;2022-07-23T15:39:57;4.45;;;2.60;;
25359;SDS011;13311;51.386;0.016;2022-07-23T15:44:58;3.40;;;1.95;;
25359;SDS011;13311;51.386;0.016;2022-07-23T15:49:59;5.10;;;1.65;;
25359;SDS011;13311;51.386;0.016;2022-07-23T15:54:59;2.13;;;1.20;;
25359;SDS011;13311;51.386;0.016;2022-07-23T16:00:00;2.67;;;1.52;;
25359;SDS011;13311;51.386;0.016;2022-07-23T16:05:02;10.55;;;1.92;;
25359;SDS011;13311;51.386;0.016;2022-07-23T16:10:06;6.65;;;1.98;;
25359;SDS011;13311;51.386;0.016;2022-07-23T16:15:10;2.42;;;1.52;;
25359;SDS011;13311;51.386;0.016;2022-07-23T16:20:10;2.65;;;1.88;;
25359;SDS011;13311;51.386;0.016;2022-07-23T16:25:12;4.95;;;2.47;;
25359;SDS011;13311;51.386;0.016;2022-07-23T16:30:13;5.05;;;1.83;;
25359;SDS011;13311;51.386;0.016;2022-07-23T16:35:14;2.08;;;1.23;;
25359;SDS011;13311;51.386;0.016;2022-07-23T16:40:15;2.38;;;1.65;;
25359;SDS011;13311;51.386;0.016;2022-07-23T16:45:16;2.28;;;1.42;;
25359;SDS011;13311;51.386;0.016;2022-07-23T16:50:16;2.00;;;1.65;;
25359;SDS011;13311;51.386;0.016;2022-07-23T16:55:17;2.53;;;1.30;;
25359;SDS011;13311;51.386;0.016;2022-07-23T17:00:18;1.60;;;1.50;;
25359;SDS011;13311;51.386;0.016;2022-07-23T17:05:19;3.78;;;1.33;;
25359;SDS011;13311;51.386;0.016;2022-07-23T17:10:20;1.42;;;1.23;;
25359;SDS011;13311;51.386;0.016;2022-07-23T17:15:22;1.60;;;1.27;;
25359;SDS011;13311;51.386;0.016;2022-07-23T17:20:23;2.75;;;1.30;;
25359;SDS011;13311;51.386;0.016;2022-07-23T17:25:24;1.90;;;1.45;;
25359;SDS011;13311;51.386;0.016;2022-07-23T17:30:25;1.55;;;1.38;;
25359;SDS011;13311;51.386;0.016;2022-07-23T17:35:26;3.90;;;1.70;;
25359;SDS011;13311;51.386;0.016;2022-07-23T17:40:26;1.77;;;1.67;;
25359;SDS011;13311;51.386;0.016;2022-07-23T17:45:27;1.77;;;1.40;;
25359;SDS011;13311;51.386;0.016;2022-07-23T17:50:28;2.65;;;2.42;;
25359;SDS011;13311;51.386;0.016;2022-07-23T17:55:29;3.30;;;2.60;;
25359;SDS011;13311;51.386;0.016;2022-07-23T18:00:31;3.08;;;2.53;;
25359;SDS011;13311;51.386;0.016;2022-07-23T18:05:35;6.30;;;3.88;;
25359;SDS011;13311;51.386;0.016;2022-07-23T18:10:36;2.80;;;2.40;;
25359;SDS011;13311;51.386;0.016;2022-07-23T18:15:56;6.38;;;2.42;;
25359;SDS011;13311;51.386;0.016;2022-07-23T18:20:57;2.55;;;1.98;;
25359;SDS011;13311;51.386;0.016;2022-07-23T18:25:57;2.15;;;1.60;;
25359;SDS011;13311;51.386;0.016;2022-07-23T18:30:58;2.42;;;1.52;;
25359;SDS011;13311;51.386;0.016;2022-07-23T18:35:59;1.98;;;1.40;;
25359;SDS011;13311;51.386;0.016;2022-07-23T18:41:00;1.90;;;1.45;;
25359;SDS011;13311;51.386;0.016;2022-07-23T18:46:01;2.47;;;1.40;;
25359;SDS011;13311;51.386;0.016;2022-07-23T18:51:02;2.22;;;1.60;;
25359;SDS011;13311;51.386;0.016;2022-07-23T18:56:03;2.25;;;1.40;;
25359;SDS011;13311;51.386;0.016;2022-07-23T19:01:05;1.80;;;1.40;;
25359;SDS011;13311;51.386;0.016;2022-07-23T19:06:06;3.17;;;1.30;;
25359;SDS011;13311;51.386;0.016;2022-07-23T19:11:07;2.25;;;1.63;;
25359;SDS011;13311;51.386;0.016;2022-07-23T19:16:08;1.85;;;1.63;;
25359;SDS011;13311;51.386;0.016;2022-07-23T19:21:08;1.70;;;1.60;;
25359;SDS011;13311;51.386;0.016;2022-07-23T19:26:09;3.25;;;1.70;;
25359;SDS011;13311;51.386;0.016;2022-07-23T19:31:10;2.72;;;1.90;;
25359;SDS011;13311;51.386;0.016;2022-07-23T19:36:11;5.38;;;2.25;;
25359;SDS011;13311;51.386;0.016;2022-07-23T19:41:12;2.05;;;1.67;;
25359;SDS011;13311;51.386;0.016;2022-07-23T19:46:13;3.50;;;2.22;;
25359;SDS011;13311;51.386;0.016;2022-07-23T19:51:14;2.25;;;1.65;;
25359;SDS011;13311;51.386;0.016;2022-07-23T19:56:15;3.35;;;2.05;;
25359;SDS011;13311;51.386;0.016;2022-07-23T20:01:20;2.03;;;1.70;;
25359;SDS011;13311;51.386;0.016;2022-07-23T20:06:21;1.67;;;1.58;;
25359;SDS011;13311;51.386;0.016;2022-07-23T20:11:22;1.85;;;1.75;;
25359;SDS011;13311;51.386;0.016;2022-07-23T20:16:23;2.45;;;2.08;;
25359;SDS011;13311;51.386;0.016;2022-07-23T20:21:24;1.85;;;1.55;;
25359;SDS011;13311;51.386;0.016;2022-07-23T20:26:25;4.03;;;1.88;;
25359;SDS011;13311;51.386;0.016;2022-07-23T20:31:26;2.97;;;2.25;;
25359;SDS011;13311;51.386;0.016;2022-07-23T20:36:27;4.70;;;2.03;;
25359;SDS011;13311;51.386;0.016;2022-07-23T20:41:28;6.13;;;2.20;;
25359;SDS011;13311;51.386;0.016;2022-07-23T20:46:28;5.72;;;2.70;;
25359;SDS011;13311;51.386;0.016;2022-07-23T20:51:29;3.22;;;1.90;;
25359;SDS011;13311;51.386;0.016;2022-07-23T20:56:30;3.13;;;2.20;;
25359;SDS011;13311;51.386;0.016;2022-07-23T21:01:32;3.50;;;2.45;;
25359;SDS011;13311;51.386;0.016;2022-07-23T21:06:33;4.60;;;2.47;;
25359;SDS011;13311;51.386;0.016;2022-07-23T21:11:34;4.32;;;2.35;;
25359;SDS011;13311;51.386;0.016;2022-07-23T21:16:35;5.25;;;2.85;;
25359;SDS011;13311;51.386;0.016;2022-07-23T21:21:36;5.65;;;2.70;;
25359;SDS011;13311;51.386;0.016;2022-07-23T21:26:36;2.80;;;2.53;;
25359;SDS011;13311;51.386;0.016;2022-07-23T21:31:37;3.60;;;2.85;;
25359;SDS011;13311;51.386;0.016;2022-07-23T21:36:38;4.53;;;2.63;;
25359;SDS011;13311;51.386;0.016;2022-07-23T21:41:39;4.13;;;2.53;;
25359;SDS011;13311;51.386;0.016;2022-07-23T21:46:41;6.13;;;2.67;;
25359;SDS011;13311;51.386;0.016;2022-07-23T21:51:42;4.32;;;2.55;;
25359;SDS011;13311;51.386;0.016;2022-07-23T21:56:44;2.55;;;2.25;;
25359;SDS011;13311;51.386;0.016;2022-07-23T22:01:45;5.00;;;2.42;;
25359;SDS011;13311;51.386;0.016;2022-07-23T22:06:46;3.75;;;2.53;;
25359;SDS011;13311;51.386;0.016;2022-07-23T22:11:46;5.03;;;2.22;;
25359;SDS011;13311;51.386;0.016;2022-07-23T22:16:47;3.47;;;2.20;;
25359;SDS011;13311;51.386;0.016;2022-07-23T22:21:48;4.00;;;2.45;;
25359;SDS011;13311;51.386;0.016;2022-07-23T22:26:49;4.10;;;2.35;;
25359;SDS011;13311;51.386;0.016;2022-07-23T22:31:50;2.47;;;2.25;;
25359;SDS011;13311;51.386;0.016;2022-07-23T22:36:50;3.60;;;2.15;;
25359;SDS011;13311;51.386;0.016;2022-07-23T22:41:51;7.47;;;2.72;;
25359;SDS011;13311;51.386;0.016;2022-07-23T22:46:52;6.30;;;2.47;;
25359;SDS011;13311;51.386;0.016;2022-07-23T22:51:53;3.05;;;2.17;;
25359;SDS011;13311;51.386;0.016;2022-07-23T22:56:53;3.53;;;2.30;;
25359;SDS011;13311;51.386;0.016;2022-07-23T23:01:54;3.65;;;2.45;;
25359;SDS011;13311;51.386;0.016;2022-07-23T23:06:55;5.38;;;3.00;;
25359;SDS011;13311;51.386;0.016;2022-07-23T23:11:56;3.78;;;2.88;;
25359;SDS011;13311;51.386;0.016;2022-07-23T23:16:57;2.80;;;2.58;;
25359;SDS011;13311;51.386;0.016;2022-07-23T23:21:57;5.55;;;2.80;;
25359;SDS011;13311;51.386;0.016;2022-07-23T23:26:58;2.78;;;2.42;;
25359;SDS011;13311;51.386;0.016;2022-07-23T23:31:59;4.38;;;3.30;;
25359;SDS011;13311;51.386;0.016;2022-07-23T23:37:00;4.97;;;2.75;;
25359;SDS011;13311;51.386;0.016;2022-07-23T23:42:01;2.90;;;2.50;;
25359;SDS011;13311;51.386;0.016;2022-07-23T23:47:02;4.00;;;2.75;;
25359;SDS011;13311;51.386;0.016;2022-07-23T23:52:03;3.85;;;3.17;;
25359;SDS011;13311;51.386;0.016;2022-07-23T23:57:04;3.20;;;2.83;;
